Delicias, Spain
Current Conditions -  °F | °C
As of 12:00 AM on Wednesday 28 Jan 2015 (Local Time) from LEZG Reporting Station
Few Clouds Few Clouds  
Wind Chill: 36°   Ceiling: Unl
Heat Index: 45°   Visibility: 6mi
Dew Point: 37°   Wind: 23mph
Humidity: 76%   Direction: 310°NW
Pressure: 30.3"   Gusts: NA
Location:  41.65°N, 0.91°W
Report Text: LEZG 272300Z 31020KT 9999 FEW060 07/03 Q1026
Loading
Personal Weather Stations






























Interactive Weather Map New forecast layout! Learn more

10-Day Weather Forecast

Advertisements
Track Severe Weather on mobile